sensor_id;sensor_type;location;lat;lon;timestamp;temperature;humidity
2995;DHT22;35277;49.890;8.222;2023-08-20T00:01:26;28.40;87.70
2995;DHT22;35277;49.890;8.222;2023-08-20T00:03:55;28.30;87.60
2995;DHT22;35277;49.890;8.222;2023-08-20T00:06:23;28.40;87.70
2995;DHT22;35277;49.890;8.222;2023-08-20T00:08:53;28.40;87.70
2995;DHT22;35277;49.890;8.222;2023-08-20T00:11:20;28.40;88.50
2995;DHT22;35277;49.890;8.222;2023-08-20T00:13:48;28.30;87.50
2995;DHT22;35277;49.890;8.222;2023-08-20T00:16:17;28.40;87.60
2995;DHT22;35277;49.890;8.222;2023-08-20T00:18:45;28.40;87.70
2995;DHT22;35277;49.890;8.222;2023-08-20T00:21:14;28.40;87.60
2995;DHT22;35277;49.890;8.222;2023-08-20T00:23:42;28.40;87.60
2995;DHT22;35277;49.890;8.222;2023-08-20T00:26:12;28.40;87.60
2995;DHT22;35277;49.890;8.222;2023-08-20T00:28:40;28.30;87.50
2995;DHT22;35277;49.890;8.222;2023-08-20T00:31:08;28.40;87.60
2995;DHT22;35277;49.890;8.222;2023-08-20T00:33:35;28.40;87.60
2995;DHT22;35277;49.890;8.222;2023-08-20T00:36:04;28.30;87.50
2995;DHT22;35277;49.890;8.222;2023-08-20T00:38:32;28.40;87.60
2995;DHT22;35277;49.890;8.222;2023-08-20T00:41:01;28.40;87.60
2995;DHT22;35277;49.890;8.222;2023-08-20T00:43:30;28.40;87.60
2995;DHT22;35277;49.890;8.222;2023-08-20T00:45:59;28.40;87.60
2995;DHT22;35277;49.890;8.222;2023-08-20T00:48:27;28.30;87.50
2995;DHT22;35277;49.890;8.222;2023-08-20T00:50:55;28.40;87.60
2995;DHT22;35277;49.890;8.222;2023-08-20T00:53:23;28.40;87.60
2995;DHT22;35277;49.890;8.222;2023-08-20T00:55:54;28.40;87.60
2995;DHT22;35277;49.890;8.222;2023-08-20T00:58:22;28.40;87.60
2995;DHT22;35277;49.890;8.222;2023-08-20T01:00:51;28.40;87.50
2995;DHT22;35277;49.890;8.222;2023-08-20T01:03:19;28.30;87.50
2995;DHT22;35277;49.890;8.222;2023-08-20T01:05:52;28.40;87.50
2995;DHT22;35277;49.890;8.222;2023-08-20T01:08:28;28.30;87.40
2995;DHT22;35277;49.890;8.222;2023-08-20T01:11:01;28.30;87.50
2995;DHT22;35277;49.890;8.222;2023-08-20T01:13:33;28.40;87.50
2995;DHT22;35277;49.890;8.222;2023-08-20T01:16:02;28.30;87.40
2995;DHT22;35277;49.890;8.222;2023-08-20T01:18:31;28.30;88.20
2995;DHT22;35277;49.890;8.222;2023-08-20T01:21:03;28.30;87.40
2995;DHT22;35277;49.890;8.222;2023-08-20T01:23:54;28.30;87.40
2995;DHT22;35277;49.890;8.222;2023-08-20T01:26:51;28.30;87.40
2995;DHT22;35277;49.890;8.222;2023-08-20T01:29:21;28.30;87.40
2995;DHT22;35277;49.890;8.222;2023-08-20T01:31:50;28.30;87.30
2995;DHT22;35277;49.890;8.222;2023-08-20T01:34:18;28.30;87.30
2995;DHT22;35277;49.890;8.222;2023-08-20T01:36:46;28.30;87.40
2995;DHT22;35277;49.890;8.222;2023-08-20T01:39:14;28.30;87.40
2995;DHT22;35277;49.890;8.222;2023-08-20T01:41:42;28.30;87.40
2995;DHT22;35277;49.890;8.222;2023-08-20T01:44:09;28.30;87.40
2995;DHT22;35277;49.890;8.222;2023-08-20T01:46:39;28.30;87.30
2995;DHT22;35277;49.890;8.222;2023-08-20T01:49:07;28.30;87.30
2995;DHT22;35277;49.890;8.222;2023-08-20T01:51:35;28.30;87.30
2995;DHT22;35277;49.890;8.222;2023-08-20T01:54:03;28.30;87.30
2995;DHT22;35277;49.890;8.222;2023-08-20T01:56:31;28.30;87.30
2995;DHT22;35277;49.890;8.222;2023-08-20T01:58:59;28.30;87.30
2995;DHT22;35277;49.890;8.222;2023-08-20T02:01:27;28.30;87.20
2995;DHT22;35277;49.890;8.222;2023-08-20T02:03:56;28.30;87.20
2995;DHT22;35277;49.890;8.222;2023-08-20T02:06:24;28.30;87.20
2995;DHT22;35277;49.890;8.222;2023-08-20T02:08:52;28.40;87.30
2995;DHT22;35277;49.890;8.222;2023-08-20T02:11:22;28.30;87.20
2995;DHT22;35277;49.890;8.222;2023-08-20T02:13:50;28.30;87.20
2995;DHT22;35277;49.890;8.222;2023-08-20T02:16:18;28.30;87.20
2995;DHT22;35277;49.890;8.222;2023-08-20T02:18:46;28.30;87.20
2995;DHT22;35277;49.890;8.222;2023-08-20T02:21:16;28.30;87.20
2995;DHT22;35277;49.890;8.222;2023-08-20T02:23:43;28.30;87.20
2995;DHT22;35277;49.890;8.222;2023-08-20T02:26:11;28.30;87.20
2995;DHT22;35277;49.890;8.222;2023-08-20T02:28:39;28.30;87.20
2995;DHT22;35277;49.890;8.222;2023-08-20T02:31:07;28.30;87.20
2995;DHT22;35277;49.890;8.222;2023-08-20T02:33:35;28.30;87.20
2995;DHT22;35277;49.890;8.222;2023-08-20T02:36:03;28.30;87.20
2995;DHT22;35277;49.890;8.222;2023-08-20T02:38:33;28.30;87.20
2995;DHT22;35277;49.890;8.222;2023-08-20T02:41:00;28.30;87.10
2995;DHT22;35277;49.890;8.222;2023-08-20T02:43:29;28.30;87.10
2995;DHT22;35277;49.890;8.222;2023-08-20T02:46:00;28.30;87.20
2995;DHT22;35277;49.890;8.222;2023-08-20T02:48:29;28.30;87.10
2995;DHT22;35277;49.890;8.222;2023-08-20T02:50:57;28.30;87.10
2995;DHT22;35277;49.890;8.222;2023-08-20T02:53:24;28.30;87.10
2995;DHT22;35277;49.890;8.222;2023-08-20T02:55:54;28.30;87.10
2995;DHT22;35277;49.890;8.222;2023-08-20T02:58:22;28.30;87.10
2995;DHT22;35277;49.890;8.222;2023-08-20T03:00:50;28.30;87.10
2995;DHT22;35277;49.890;8.222;2023-08-20T03:03:19;28.30;87.10
2995;DHT22;35277;49.890;8.222;2023-08-20T03:05:47;28.30;87.10
2995;DHT22;35277;49.890;8.222;2023-08-20T03:08:15;28.30;87.10
2995;DHT22;35277;49.890;8.222;2023-08-20T03:10:43;28.30;87.10
2995;DHT22;35277;49.890;8.222;2023-08-20T03:13:12;28.30;87.10
2995;DHT22;35277;49.890;8.222;2023-08-20T03:15:40;28.30;87.10
2995;DHT22;35277;49.890;8.222;2023-08-20T03:18:08;28.30;87.00
2995;DHT22;35277;49.890;8.222;2023-08-20T03:20:36;28.30;87.10
2995;DHT22;35277;49.890;8.222;2023-08-20T03:23:04;28.30;87.90
2995;DHT22;35277;49.890;8.222;2023-08-20T03:25:32;28.30;87.00
2995;DHT22;35277;49.890;8.222;2023-08-20T03:27:59;28.30;87.00
2995;DHT22;35277;49.890;8.222;2023-08-20T03:30:29;28.30;87.10
2995;DHT22;35277;49.890;8.222;2023-08-20T03:32:58;28.30;87.10
2995;DHT22;35277;49.890;8.222;2023-08-20T03:35:26;28.30;87.00
2995;DHT22;35277;49.890;8.222;2023-08-20T03:37:54;28.30;87.10
2995;DHT22;35277;49.890;8.222;2023-08-20T03:40:21;28.30;87.00
2995;DHT22;35277;49.890;8.222;2023-08-20T03:42:49;28.30;87.00
2995;DHT22;35277;49.890;8.222;2023-08-20T03:45:17;28.30;87.00
2995;DHT22;35277;49.890;8.222;2023-08-20T03:47:46;28.30;87.00
2995;DHT22;35277;49.890;8.222;2023-08-20T03:50:15;28.30;87.00
2995;DHT22;35277;49.890;8.222;2023-08-20T03:52:44;28.30;87.00
2995;DHT22;35277;49.890;8.222;2023-08-20T03:55:12;28.30;87.00
2995;DHT22;35277;49.890;8.222;2023-08-20T03:57:40;28.30;87.00
2995;DHT22;35277;49.890;8.222;2023-08-20T04:00:08;28.30;87.00
2995;DHT22;35277;49.890;8.222;2023-08-20T04:02:45;28.30;87.00
2995;DHT22;35277;49.890;8.222;2023-08-20T04:05:13;28.30;87.00
2995;DHT22;35277;49.890;8.222;2023-08-20T04:07:41;28.30;87.00
2995;DHT22;35277;49.890;8.222;2023-08-20T04:10:09;28.30;87.00
2995;DHT22;35277;49.890;8.222;2023-08-20T04:12:37;28.30;87.00
2995;DHT22;35277;49.890;8.222;2023-08-20T04:15:05;28.30;87.00
2995;DHT22;35277;49.890;8.222;2023-08-20T04:17:33;28.30;87.00
2995;DHT22;35277;49.890;8.222;2023-08-20T04:20:04;28.30;87.00
2995;DHT22;35277;49.890;8.222;2023-08-20T04:22:34;28.30;87.00
2995;DHT22;35277;49.890;8.222;2023-08-20T04:25:04;28.30;87.00
2995;DHT22;35277;49.890;8.222;2023-08-20T04:27:33;28.30;87.00
2995;DHT22;35277;49.890;8.222;2023-08-20T04:30:01;28.30;87.00
2995;DHT22;35277;49.890;8.222;2023-08-20T04:32:29;28.30;87.80
2995;DHT22;35277;49.890;8.222;2023-08-20T04:34:57;28.30;87.00
2995;DHT22;35277;49.890;8.222;2023-08-20T04:37:27;28.30;87.00
2995;DHT22;35277;49.890;8.222;2023-08-20T04:39:57;28.30;87.00
2995;DHT22;35277;49.890;8.222;2023-08-20T04:42:25;28.30;87.00
2995;DHT22;35277;49.890;8.222;2023-08-20T04:44:52;28.30;87.00
2995;DHT22;35277;49.890;8.222;2023-08-20T04:47:21;28.30;87.00
2995;DHT22;35277;49.890;8.222;2023-08-20T04:49:49;28.30;87.00
2995;DHT22;35277;49.890;8.222;2023-08-20T04:52:18;28.30;87.00
2995;DHT22;35277;49.890;8.222;2023-08-20T04:54:48;28.30;87.00
2995;DHT22;35277;49.890;8.222;2023-08-20T04:57:18;28.30;87.00
2995;DHT22;35277;49.890;8.222;2023-08-20T04:59:46;28.30;87.00
2995;DHT22;35277;49.890;8.222;2023-08-20T05:02:34;28.30;87.00
2995;DHT22;35277;49.890;8.222;2023-08-20T05:05:02;28.30;87.00
2995;DHT22;35277;49.890;8.222;2023-08-20T05:07:30;28.30;87.00
2995;DHT22;35277;49.890;8.222;2023-08-20T05:10:00;28.30;87.00
2995;DHT22;35277;49.890;8.222;2023-08-20T05:12:29;28.30;87.00
2995;DHT22;35277;49.890;8.222;2023-08-20T05:14:57;28.30;87.00
2995;DHT22;35277;49.890;8.222;2023-08-20T05:17:25;28.30;87.00
2995;DHT22;35277;49.890;8.222;2023-08-20T05:19:53;28.30;87.00
2995;DHT22;35277;49.890;8.222;2023-08-20T05:22:21;28.30;87.00
2995;DHT22;35277;49.890;8.222;2023-08-20T05:24:49;28.30;87.00
2995;DHT22;35277;49.890;8.222;2023-08-20T05:27:18;28.30;87.00
2995;DHT22;35277;49.890;8.222;2023-08-20T05:29:49;28.30;87.00
2995;DHT22;35277;49.890;8.222;2023-08-20T05:32:19;28.30;87.00
2995;DHT22;35277;49.890;8.222;2023-08-20T05:34:47;28.30;87.00
2995;DHT22;35277;49.890;8.222;2023-08-20T05:37:14;28.30;87.00
2995;DHT22;35277;49.890;8.222;2023-08-20T05:39:43;28.30;87.00
2995;DHT22;35277;49.890;8.222;2023-08-20T05:42:12;28.30;87.00
2995;DHT22;35277;49.890;8.222;2023-08-20T05:44:47;28.30;87.00
2995;DHT22;35277;49.890;8.222;2023-08-20T05:47:20;28.30;86.90
2995;DHT22;35277;49.890;8.222;2023-08-20T05:49:49;28.30;86.80
2995;DHT22;35277;49.890;8.222;2023-08-20T05:52:17;28.30;86.70
2995;DHT22;35277;49.890;8.222;2023-08-20T05:54:44;28.20;86.60
2995;DHT22;35277;49.890;8.222;2023-08-20T05:57:13;28.20;86.60
2995;DHT22;35277;49.890;8.222;2023-08-20T05:59:43;28.20;86.60
2995;DHT22;35277;49.890;8.222;2023-08-20T06:02:15;28.20;86.50
2995;DHT22;35277;49.890;8.222;2023-08-20T06:04:43;28.10;86.40
2995;DHT22;35277;49.890;8.222;2023-08-20T06:07:11;28.10;86.50
2995;DHT22;35277;49.890;8.222;2023-08-20T06:09:39;28.10;86.40
2995;DHT22;35277;49.890;8.222;2023-08-20T06:12:07;28.10;86.50
2995;DHT22;35277;49.890;8.222;2023-08-20T06:14:35;28.10;86.50
2995;DHT22;35277;49.890;8.222;2023-08-20T06:17:03;28.10;86.60
2995;DHT22;35277;49.890;8.222;2023-08-20T06:19:32;28.10;86.60
2995;DHT22;35277;49.890;8.222;2023-08-20T06:22:02;28.10;86.60
2995;DHT22;35277;49.890;8.222;2023-08-20T06:24:30;28.10;86.60
2995;DHT22;35277;49.890;8.222;2023-08-20T06:26:58;28.10;86.60
2995;DHT22;35277;49.890;8.222;2023-08-20T06:29:26;28.10;86.60
2995;DHT22;35277;49.890;8.222;2023-08-20T06:31:53;28.10;86.60
2995;DHT22;35277;49.890;8.222;2023-08-20T06:34:21;28.00;86.50
2995;DHT22;35277;49.890;8.222;2023-08-20T06:36:50;28.10;86.60
2995;DHT22;35277;49.890;8.222;2023-08-20T06:39:18;28.00;86.50
2995;DHT22;35277;49.890;8.222;2023-08-20T06:41:46;28.00;86.50
2995;DHT22;35277;49.890;8.222;2023-08-20T06:44:19;28.00;86.50
2995;DHT22;35277;49.890;8.222;2023-08-20T06:46:47;28.00;86.60
2995;DHT22;35277;49.890;8.222;2023-08-20T06:49:15;28.00;86.60
2995;DHT22;35277;49.890;8.222;2023-08-20T06:51:43;28.00;86.60
2995;DHT22;35277;49.890;8.222;2023-08-20T06:54:12;28.00;86.70
2995;DHT22;35277;49.890;8.222;2023-08-20T06:56:40;28.00;86.70
2995;DHT22;35277;49.890;8.222;2023-08-20T06:59:08;28.00;86.80
2995;DHT22;35277;49.890;8.222;2023-08-20T07:01:36;28.00;86.80
2995;DHT22;35277;49.890;8.222;2023-08-20T07:04:05;27.90;86.80
2995;DHT22;35277;49.890;8.222;2023-08-20T07:06:33;27.90;86.90
2995;DHT22;35277;49.890;8.222;2023-08-20T07:09:01;27.90;86.90
2995;DHT22;35277;49.890;8.222;2023-08-20T07:11:31;27.90;87.00
2995;DHT22;35277;49.890;8.222;2023-08-20T07:13:59;27.90;87.00
2995;DHT22;35277;49.890;8.222;2023-08-20T07:16:27;27.80;87.00
2995;DHT22;35277;49.890;8.222;2023-08-20T07:18:55;27.80;87.20
2995;DHT22;35277;49.890;8.222;2023-08-20T07:21:22;27.80;87.30
2995;DHT22;35277;49.890;8.222;2023-08-20T07:23:50;27.80;87.40
2995;DHT22;35277;49.890;8.222;2023-08-20T07:26:18;27.80;87.40
2995;DHT22;35277;49.890;8.222;2023-08-20T07:28:47;27.80;87.50
2995;DHT22;35277;49.890;8.222;2023-08-20T07:31:24;27.80;87.50
2995;DHT22;35277;49.890;8.222;2023-08-20T07:33:53;27.80;87.70
2995;DHT22;35277;49.890;8.222;2023-08-20T07:36:22;27.80;87.80
2995;DHT22;35277;49.890;8.222;2023-08-20T07:38:50;27.80;87.90
2995;DHT22;35277;49.890;8.222;2023-08-20T07:41:19;27.80;87.90
2995;DHT22;35277;49.890;8.222;2023-08-20T07:43:49;27.80;88.00
2995;DHT22;35277;49.890;8.222;2023-08-20T07:46:17;27.80;88.10
2995;DHT22;35277;49.890;8.222;2023-08-20T07:48:45;27.80;88.10
2995;DHT22;35277;49.890;8.222;2023-08-20T07:51:12;27.80;88.10
2995;DHT22;35277;49.890;8.222;2023-08-20T07:53:40;27.80;88.10
2995;DHT22;35277;49.890;8.222;2023-08-20T07:56:08;27.80;88.20
2995;DHT22;35277;49.890;8.222;2023-08-20T07:58:36;27.80;88.20
2995;DHT22;35277;49.890;8.222;2023-08-20T08:01:05;27.80;88.10
2995;DHT22;35277;49.890;8.222;2023-08-20T08:03:33;27.80;88.10
2995;DHT22;35277;49.890;8.222;2023-08-20T08:06:01;27.80;88.10
2995;DHT22;35277;49.890;8.222;2023-08-20T08:08:29;27.80;88.10
2995;DHT22;35277;49.890;8.222;2023-08-20T08:10:57;27.80;88.10
2995;DHT22;35277;49.890;8.222;2023-08-20T08:13:25;27.80;88.10
2995;DHT22;35277;49.890;8.222;2023-08-20T08:15:53;27.80;88.10
2995;DHT22;35277;49.890;8.222;2023-08-20T08:18:22;27.80;88.10
2995;DHT22;35277;49.890;8.222;2023-08-20T08:20:50;27.90;88.10
2995;DHT22;35277;49.890;8.222;2023-08-20T08:23:18;27.90;88.10
2995;DHT22;35277;49.890;8.222;2023-08-20T08:25:45;27.90;88.00
2995;DHT22;35277;49.890;8.222;2023-08-20T08:28:13;27.90;87.80
2995;DHT22;35277;49.890;8.222;2023-08-20T08:30:41;27.90;87.70
2995;DHT22;35277;49.890;8.222;2023-08-20T08:33:09;27.90;87.60
2995;DHT22;35277;49.890;8.222;2023-08-20T08:35:38;27.90;87.60
2995;DHT22;35277;49.890;8.222;2023-08-20T08:38:06;27.90;87.50
2995;DHT22;35277;49.890;8.222;2023-08-20T08:40:34;27.90;87.50
2995;DHT22;35277;49.890;8.222;2023-08-20T08:43:02;27.90;87.50
2995;DHT22;35277;49.890;8.222;2023-08-20T08:45:30;28.00;87.70
2995;DHT22;35277;49.890;8.222;2023-08-20T08:48:02;28.00;87.70
2995;DHT22;35277;49.890;8.222;2023-08-20T08:50:31;28.00;87.60
2995;DHT22;35277;49.890;8.222;2023-08-20T08:53:01;28.00;87.60
2995;DHT22;35277;49.890;8.222;2023-08-20T08:55:29;28.00;87.60
2995;DHT22;35277;49.890;8.222;2023-08-20T08:57:57;28.00;87.60
2995;DHT22;35277;49.890;8.222;2023-08-20T09:00:25;28.10;87.60
2995;DHT22;35277;49.890;8.222;2023-08-20T09:02:53;28.10;87.50
2995;DHT22;35277;49.890;8.222;2023-08-20T09:05:20;28.10;88.30
2995;DHT22;35277;49.890;8.222;2023-08-20T09:07:55;28.10;87.50
2995;DHT22;35277;49.890;8.222;2023-08-20T09:10:25;28.10;87.50
2995;DHT22;35277;49.890;8.222;2023-08-20T09:12:54;28.20;87.60
2995;DHT22;35277;49.890;8.222;2023-08-20T09:15:31;28.20;87.50
2995;DHT22;35277;49.890;8.222;2023-08-20T09:18:01;28.20;87.50
2995;DHT22;35277;49.890;8.222;2023-08-20T09:20:36;28.20;87.40
2995;DHT22;35277;49.890;8.222;2023-08-20T09:23:06;28.20;87.20
2995;DHT22;35277;49.890;8.222;2023-08-20T09:25:39;28.20;87.20
2995;DHT22;35277;49.890;8.222;2023-08-20T09:28:08;28.20;87.00
2995;DHT22;35277;49.890;8.222;2023-08-20T09:30:36;28.20;86.80
2995;DHT22;35277;49.890;8.222;2023-08-20T09:33:10;28.20;87.50
2995;DHT22;35277;49.890;8.222;2023-08-20T09:35:38;28.20;86.70
2995;DHT22;35277;49.890;8.222;2023-08-20T09:38:06;28.20;86.80
2995;DHT22;35277;49.890;8.222;2023-08-20T09:40:33;28.30;87.00
2995;DHT22;35277;49.890;8.222;2023-08-20T09:43:03;28.30;86.90
2995;DHT22;35277;49.890;8.222;2023-08-20T09:45:34;28.30;86.80
2995;DHT22;35277;49.890;8.222;2023-08-20T09:48:06;28.30;86.60
2995;DHT22;35277;49.890;8.222;2023-08-20T09:50:36;28.30;86.60
2995;DHT22;35277;49.890;8.222;2023-08-20T09:53:09;28.40;86.70
2995;DHT22;35277;49.890;8.222;2023-08-20T09:55:41;28.40;86.60
2995;DHT22;35277;49.890;8.222;2023-08-20T09:58:11;28.40;86.70
2995;DHT22;35277;49.890;8.222;2023-08-20T10:00:39;28.40;86.70
2995;DHT22;35277;49.890;8.222;2023-08-20T10:03:07;28.50;87.60
2995;DHT22;35277;49.890;8.222;2023-08-20T10:05:34;28.40;86.70
2995;DHT22;35277;49.890;8.222;2023-08-20T10:08:03;28.50;86.80
2995;DHT22;35277;49.890;8.222;2023-08-20T10:10:33;28.50;86.80
2995;DHT22;35277;49.890;8.222;2023-08-20T10:13:02;28.50;86.80
2995;DHT22;35277;49.890;8.222;2023-08-20T10:15:31;28.50;86.80
2995;DHT22;35277;49.890;8.222;2023-08-20T10:18:07;28.50;86.70
2995;DHT22;35277;49.890;8.222;2023-08-20T10:20:35;28.60;86.80
2995;DHT22;35277;49.890;8.222;2023-08-20T10:23:05;28.50;86.70
2995;DHT22;35277;49.890;8.222;2023-08-20T10:25:40;28.60;86.80
2995;DHT22;35277;49.890;8.222;2023-08-20T10:28:13;28.60;86.80
2995;DHT22;35277;49.890;8.222;2023-08-20T10:31:08;28.60;86.70
2995;DHT22;35277;49.890;8.222;2023-08-20T10:33:38;28.70;86.70
2995;DHT22;35277;49.890;8.222;2023-08-20T10:36:12;28.70;86.70
2995;DHT22;35277;49.890;8.222;2023-08-20T10:38:40;28.70;86.70
2995;DHT22;35277;49.890;8.222;2023-08-20T10:41:09;28.70;86.50
2995;DHT22;35277;49.890;8.222;2023-08-20T10:43:38;28.70;86.50
2995;DHT22;35277;49.890;8.222;2023-08-20T10:46:15;28.80;86.50
2995;DHT22;35277;49.890;8.222;2023-08-20T10:48:47;28.80;86.40
2995;DHT22;35277;49.890;8.222;2023-08-20T10:51:17;28.80;86.40
2995;DHT22;35277;49.890;8.222;2023-08-20T10:54:02;28.70;86.20
2995;DHT22;35277;49.890;8.222;2023-08-20T10:56:39;28.80;86.30
2995;DHT22;35277;49.890;8.222;2023-08-20T10:59:08;28.80;86.20
2995;DHT22;35277;49.890;8.222;2023-08-20T11:01:38;28.80;86.20
2995;DHT22;35277;49.890;8.222;2023-08-20T11:04:07;28.80;86.10
2995;DHT22;35277;49.890;8.222;2023-08-20T11:06:36;28.80;86.20
2995;DHT22;35277;49.890;8.222;2023-08-20T11:09:05;28.80;86.10
2995;DHT22;35277;49.890;8.222;2023-08-20T11:11:33;28.80;86.10
2995;DHT22;35277;49.890;8.222;2023-08-20T11:14:05;28.80;86.00
2995;DHT22;35277;49.890;8.222;2023-08-20T11:16:34;28.80;86.00
2995;DHT22;35277;49.890;8.222;2023-08-20T11:19:04;28.90;86.10
2995;DHT22;35277;49.890;8.222;2023-08-20T11:21:35;28.90;86.10
2995;DHT22;35277;49.890;8.222;2023-08-20T11:24:04;28.90;86.00
2995;DHT22;35277;49.890;8.222;2023-08-20T11:26:33;29.00;86.10
2995;DHT22;35277;49.890;8.222;2023-08-20T11:29:02;29.00;86.10
2995;DHT22;35277;49.890;8.222;2023-08-20T11:31:32;29.00;86.00
2995;DHT22;35277;49.890;8.222;2023-08-20T11:34:01;29.10;86.20
2995;DHT22;35277;49.890;8.222;2023-08-20T11:36:31;29.10;86.30
2995;DHT22;35277;49.890;8.222;2023-08-20T11:38:59;29.10;86.20
2995;DHT22;35277;49.890;8.222;2023-08-20T11:41:27;29.20;86.20
2995;DHT22;35277;49.890;8.222;2023-08-20T11:43:56;29.20;86.20
2995;DHT22;35277;49.890;8.222;2023-08-20T11:46:24;29.30;86.20
2995;DHT22;35277;49.890;8.222;2023-08-20T11:48:58;29.30;86.10
2995;DHT22;35277;49.890;8.222;2023-08-20T11:51:27;29.30;86.00
2995;DHT22;35277;49.890;8.222;2023-08-20T11:53:57;29.40;86.10
2995;DHT22;35277;49.890;8.222;2023-08-20T11:56:26;29.40;86.10
2995;DHT22;35277;49.890;8.222;2023-08-20T11:58:59;29.40;86.10
2995;DHT22;35277;49.890;8.222;2023-08-20T12:01:30;29.40;86.00
2995;DHT22;35277;49.890;8.222;2023-08-20T12:04:03;29.50;85.90
2995;DHT22;35277;49.890;8.222;2023-08-20T12:06:31;29.50;85.70
2995;DHT22;35277;49.890;8.222;2023-08-20T12:09:01;29.50;85.50
2995;DHT22;35277;49.890;8.222;2023-08-20T12:11:30;29.50;85.50
2995;DHT22;35277;49.890;8.222;2023-08-20T12:14:00;29.50;85.50
2995;DHT22;35277;49.890;8.222;2023-08-20T12:16:27;29.50;85.60
2995;DHT22;35277;49.890;8.222;2023-08-20T12:18:55;29.60;85.90
2995;DHT22;35277;49.890;8.222;2023-08-20T12:21:23;29.50;85.90
2995;DHT22;35277;49.890;8.222;2023-08-20T12:23:51;29.50;86.00
2995;DHT22;35277;49.890;8.222;2023-08-20T12:26:20;29.50;86.00
2995;DHT22;35277;49.890;8.222;2023-08-20T12:28:48;29.50;86.00
2995;DHT22;35277;49.890;8.222;2023-08-20T12:31:15;29.50;86.00
2995;DHT22;35277;49.890;8.222;2023-08-20T12:33:43;29.40;85.90
2995;DHT22;35277;49.890;8.222;2023-08-20T12:36:11;29.50;86.90
2995;DHT22;35277;49.890;8.222;2023-08-20T12:38:39;29.50;86.10
2995;DHT22;35277;49.890;8.222;2023-08-20T12:41:08;29.40;86.10
2995;DHT22;35277;49.890;8.222;2023-08-20T12:43:37;29.40;86.10
2995;DHT22;35277;49.890;8.222;2023-08-20T12:46:05;29.40;86.10
2995;DHT22;35277;49.890;8.222;2023-08-20T12:48:33;29.40;86.20
2995;DHT22;35277;49.890;8.222;2023-08-20T12:51:01;29.40;86.20
2995;DHT22;35277;49.890;8.222;2023-08-20T12:53:29;29.40;86.20
2995;DHT22;35277;49.890;8.222;2023-08-20T12:55:57;29.40;86.20
2995;DHT22;35277;49.890;8.222;2023-08-20T12:58:25;29.40;86.20
2995;DHT22;35277;49.890;8.222;2023-08-20T13:00:54;29.40;86.20
2995;DHT22;35277;49.890;8.222;2023-08-20T13:03:22;29.40;86.30
2995;DHT22;35277;49.890;8.222;2023-08-20T13:05:51;29.40;86.20
2995;DHT22;35277;49.890;8.222;2023-08-20T13:08:19;29.40;86.20
2995;DHT22;35277;49.890;8.222;2023-08-20T13:10:53;29.40;86.10
2995;DHT22;35277;49.890;8.222;2023-08-20T13:13:22;29.40;86.00
2995;DHT22;35277;49.890;8.222;2023-08-20T13:15:52;29.40;86.00
2995;DHT22;35277;49.890;8.222;2023-08-20T13:18:22;29.40;86.00
2995;DHT22;35277;49.890;8.222;2023-08-20T13:20:52;29.40;85.90
2995;DHT22;35277;49.890;8.222;2023-08-20T13:23:20;29.40;85.90
2995;DHT22;35277;49.890;8.222;2023-08-20T13:25:48;29.40;86.00
2995;DHT22;35277;49.890;8.222;2023-08-20T13:28:16;29.30;85.80
2995;DHT22;35277;49.890;8.222;2023-08-20T13:30:44;29.30;85.80
2995;DHT22;35277;49.890;8.222;2023-08-20T13:33:12;29.30;85.70
2995;DHT22;35277;49.890;8.222;2023-08-20T13:35:42;29.30;85.70
2995;DHT22;35277;49.890;8.222;2023-08-20T13:38:09;29.30;85.70
2995;DHT22;35277;49.890;8.222;2023-08-20T13:40:37;29.30;85.60
2995;DHT22;35277;49.890;8.222;2023-08-20T13:43:05;29.30;85.60
2995;DHT22;35277;49.890;8.222;2023-08-20T13:45:35;29.30;85.60
2995;DHT22;35277;49.890;8.222;2023-08-20T13:48:04;29.30;85.50
2995;DHT22;35277;49.890;8.222;2023-08-20T13:50:32;29.20;85.50
2995;DHT22;35277;49.890;8.222;2023-08-20T13:53:01;29.30;85.50
2995;DHT22;35277;49.890;8.222;2023-08-20T13:55:29;29.20;85.30
2995;DHT22;35277;49.890;8.222;2023-08-20T13:57:57;29.20;85.30
2995;DHT22;35277;49.890;8.222;2023-08-20T14:00:25;29.20;85.30
2995;DHT22;35277;49.890;8.222;2023-08-20T14:02:53;29.30;85.30
2995;DHT22;35277;49.890;8.222;2023-08-20T14:05:21;29.30;85.20
2995;DHT22;35277;49.890;8.222;2023-08-20T14:07:49;29.30;85.20
2995;DHT22;35277;49.890;8.222;2023-08-20T14:10:18;29.20;85.00
2995;DHT22;35277;49.890;8.222;2023-08-20T14:12:46;29.20;84.90
2995;DHT22;35277;49.890;8.222;2023-08-20T14:15:13;29.30;84.80
2995;DHT22;35277;49.890;8.222;2023-08-20T14:17:41;29.30;84.60
2995;DHT22;35277;49.890;8.222;2023-08-20T14:20:10;29.30;84.40
2995;DHT22;35277;49.890;8.222;2023-08-20T14:22:38;29.30;84.30
2995;DHT22;35277;49.890;8.222;2023-08-20T14:25:07;29.20;84.40
2995;DHT22;35277;49.890;8.222;2023-08-20T14:27:36;29.30;84.50
2995;DHT22;35277;49.890;8.222;2023-08-20T14:30:05;29.30;84.50
2995;DHT22;35277;49.890;8.222;2023-08-20T14:32:34;29.30;84.60
2995;DHT22;35277;49.890;8.222;2023-08-20T14:35:07;29.30;84.70
2995;DHT22;35277;49.890;8.222;2023-08-20T14:37:35;29.20;84.70
2995;DHT22;35277;49.890;8.222;2023-08-20T14:40:03;29.20;84.70
2995;DHT22;35277;49.890;8.222;2023-08-20T14:42:33;29.30;84.90
2995;DHT22;35277;49.890;8.222;2023-08-20T14:45:04;29.30;84.90
2995;DHT22;35277;49.890;8.222;2023-08-20T14:47:31;29.30;85.10
2995;DHT22;35277;49.890;8.222;2023-08-20T14:49:59;29.20;85.10
2995;DHT22;35277;49.890;8.222;2023-08-20T14:52:27;29.30;85.20
2995;DHT22;35277;49.890;8.222;2023-08-20T14:54:55;29.30;85.30
2995;DHT22;35277;49.890;8.222;2023-08-20T14:57:23;29.30;85.40
2995;DHT22;35277;49.890;8.222;2023-08-20T15:00:00;29.30;85.40
2995;DHT22;35277;49.890;8.222;2023-08-20T15:02:29;29.20;85.50
2995;DHT22;35277;49.890;8.222;2023-08-20T15:04:57;29.20;85.50
2995;DHT22;35277;49.890;8.222;2023-08-20T15:07:25;29.30;85.70
2995;DHT22;35277;49.890;8.222;2023-08-20T15:09:53;29.30;85.80
2995;DHT22;35277;49.890;8.222;2023-08-20T15:12:20;29.30;85.90
2995;DHT22;35277;49.890;8.222;2023-08-20T15:14:48;29.30;85.90
2995;DHT22;35277;49.890;8.222;2023-08-20T15:17:16;29.30;86.00
2995;DHT22;35277;49.890;8.222;2023-08-20T15:19:45;29.30;86.00
2995;DHT22;35277;49.890;8.222;2023-08-20T15:22:13;29.30;86.10
2995;DHT22;35277;49.890;8.222;2023-08-20T15:24:41;29.30;86.10
2995;DHT22;35277;49.890;8.222;2023-08-20T15:27:09;29.30;86.20
2995;DHT22;35277;49.890;8.222;2023-08-20T15:29:37;29.30;86.20
2995;DHT22;35277;49.890;8.222;2023-08-20T15:32:05;29.30;86.30
2995;DHT22;35277;49.890;8.222;2023-08-20T15:34:33;29.30;86.40
2995;DHT22;35277;49.890;8.222;2023-08-20T15:37:02;29.30;86.40
2995;DHT22;35277;49.890;8.222;2023-08-20T15:39:32;29.30;86.40
2995;DHT22;35277;49.890;8.222;2023-08-20T15:42:00;29.30;86.40
2995;DHT22;35277;49.890;8.222;2023-08-20T15:44:28;29.30;86.40
2995;DHT22;35277;49.890;8.222;2023-08-20T15:46:56;29.30;86.40
2995;DHT22;35277;49.890;8.222;2023-08-20T15:49:24;29.30;86.40
2995;DHT22;35277;49.890;8.222;2023-08-20T15:51:53;29.30;86.40
2995;DHT22;35277;49.890;8.222;2023-08-20T15:54:23;29.30;86.50
2995;DHT22;35277;49.890;8.222;2023-08-20T15:56:52;29.30;86.50